Time;durP1;ratioP1;P1;durP2;ratioP2;P2;SDS_P1;SDS_P2;PMS_P1;PMS_P2;Temp;Humidity;BMP_temperature;BMP_pressure;BME280_temperature;BME280_humidity;BME280_pressure;Samples;Min_cycle;Max_cycle;Signal;HPM_P1;HPM_P2
2022/08/23 00:01:10;;;;;;;7.18;2.55;;;20.40;90.50;;;;;;5067393;28;20057;-82
2022/08/23 00:03:36;;;;;;;9.17;3.30;;;20.80;90.80;;;;;;5076267;28;20029;-82
2022/08/23 00:06:02;;;;;;;5.65;2.40;;;20.40;90.90;;;;;;5062632;28;20267;-83
2022/08/23 00:08:28;;;;;;;4.97;2.60;;;20.40;91.20;;;;;;5062556;28;20036;-84
2022/08/23 00:10:54;;;;;;;6.32;2.55;;;20.30;91.20;;;;;;5062110;28;20057;-83
2022/08/23 00:13:20;;;;;;;5.65;2.65;;;20.30;91.40;;;;;;5061590;28;20117;-84
2022/08/23 00:15:46;;;;;;;5.45;2.58;;;20.30;91.60;;;;;;5054823;28;20061;-82
2022/08/23 00:18:13;;;;;;;6.85;2.70;;;20.30;91.80;;;;;;5074927;28;20025;-82
2022/08/23 00:20:38;;;;;;;8.68;2.72;;;20.20;91.80;;;;;;5062843;28;20101;-81
2022/08/23 00:23:04;;;;;;;5.38;2.22;;;20.20;92.00;;;;;;5063416;28;20036;-84
2022/08/23 00:25:30;;;;;;;7.40;2.25;;;20.20;92.40;;;;;;5062115;28;20031;-83
2022/08/23 00:27:55;;;;;;;5.13;2.30;;;20.20;92.60;;;;;;5061905;28;20112;-83
2022/08/23 00:30:21;;;;;;;4.85;2.83;;;;;;;;;;5074162;28;20035;-80
2022/08/23 00:32:47;;;;;;;5.80;2.28;;;;;;;;;;5054742;28;20039;-80
2022/08/23 00:35:14;;;;;;;7.75;2.65;;;20.10;93.10;;;;;;5061279;28;20025;-84
2022/08/23 00:37:41;;;;;;;5.65;2.28;;;;;;;;;;5059075;28;20025;-84
2022/08/23 00:40:11;;;;;;;5.43;2.30;;;20.00;93.50;;;;;;5054226;28;20028;-82
2022/08/23 00:48:28;;;;;;;4.63;2.25;;;20.00;94.50;;;;;;5051939;28;20560;-83
2022/08/23 00:51:01;;;;;;;6.82;2.28;;;19.90;94.40;;;;;;5055010;28;20482;-85
2022/08/23 00:53:31;;;;;;;6.88;2.10;;;20.00;94.80;;;;;;5048306;28;20247;-83
2022/08/23 00:56:02;;;;;;;6.25;2.35;;;19.90;95.10;;;;;;5069720;28;20025;-84
2022/08/23 00:58:29;;;;;;;5.00;2.35;;;19.80;95.30;;;;;;5053554;28;20021;-81
2022/08/23 01:00:57;;;;;;;6.55;2.78;;;19.80;95.50;;;;;;5068822;28;20041;-84
2022/08/23 01:03:25;;;;;;;7.32;2.35;;;19.80;95.70;;;;;;5077011;28;20032;-82
2022/08/23 01:06:13;;;;;;;6.25;2.42;;;19.80;95.90;;;;;;5076657;28;20024;-83
2022/08/23 01:08:45;;;;;;;4.82;2.20;;;19.70;96.10;;;;;;5076069;28;20112;-84
2022/08/23 01:11:16;;;;;;;7.05;2.40;;;19.70;96.60;;;;;;5075231;28;20096;-83
2022/08/23 01:13:50;;;;;;;7.10;3.00;;;19.70;96.80;;;;;;5068622;28;20060;-84
2022/08/23 01:16:21;;;;;;;7.25;2.65;;;19.70;97.00;;;;;;5055011;28;20053;-80
2022/08/23 01:18:48;;;;;;;4.63;2.70;;;;;;;;;;5056826;28;20085;-83
2022/08/23 01:21:15;;;;;;;5.18;2.35;;;19.70;97.10;;;;;;5054595;28;20029;-82
2022/08/23 01:23:49;;;;;;;7.80;3.08;;;19.70;97.20;;;;;;5060265;28;20044;-81
2022/08/23 01:26:17;;;;;;;5.93;2.40;;;21.00;97.70;;;;;;5060813;28;20032;-81
2022/08/23 01:28:43;;;;;;;6.38;2.67;;;;;;;;;;5059387;28;20029;-82
2022/08/23 01:31:10;;;;;;;5.13;3.15;;;;;;;;;;5066940;28;20100;-80
2022/08/23 01:33:37;;;;;;;5.43;2.88;;;19.30;98.20;;;;;;5067539;28;20075;-82
2022/08/23 01:36:04;;;;;;;8.50;2.92;;;19.30;98.60;;;;;;5050521;28;20437;-83
2022/08/23 01:38:30;;;;;;;9.40;2.75;;;;;;;;;;5075515;28;20044;-81
2022/08/23 01:40:56;;;;;;;8.07;2.85;;;19.20;98.70;;;;;;5062073;28;20025;-83
2022/08/23 01:43:22;;;;;;;5.93;3.15;;;19.20;99.10;;;;;;5043979;28;20112;-83
2022/08/23 01:45:49;;;;;;;6.00;2.45;;;19.20;99.20;;;;;;5063357;28;20048;-84
2022/08/23 01:48:16;;;;;;;6.47;2.42;;;19.20;99.40;;;;;;5067689;28;20025;-81
2022/08/23 01:50:42;;;;;;;5.10;2.58;;;19.20;99.80;;;;;;5042820;28;20029;-80
2022/08/23 01:53:08;;;;;;;3.50;2.15;;;;;;;;;;5059081;28;20033;-84
2022/08/23 01:55:35;;;;;;;5.85;2.42;;;19.10;99.90;;;;;;5078648;28;20048;-84
2022/08/23 01:58:04;;;;;;;7.70;2.72;;;19.10;99.90;;;;;;5065074;28;20084;-83
2022/08/23 02:00:37;;;;;;;4.57;2.55;;;19.10;99.90;;;;;;5068312;28;20025;-83
2022/08/23 02:03:04;;;;;;;6.30;2.55;;;19.10;99.90;;;;;;5067464;28;20028;-83
2022/08/23 02:05:31;;;;;;;6.75;3.00;;;19.60;99.90;;;;;;5071804;28;20778;-81
2022/08/23 02:08:59;;;;;;;9.38;3.28;;;19.10;99.90;;;;;;5060548;28;20489;-83
2022/08/23 02:10:43;;;;;;;4.25;2.45;;;19.00;99.90;;;;;;5060748;28;20025;-83
2022/08/23 02:13:08;;;;;;;6.90;2.85;;;19.00;99.90;;;;;;5059556;28;20028;-83
2022/08/23 02:15:34;;;;;;;4.63;2.42;;;19.00;99.90;;;;;;5055659;28;20602;-82
2022/08/23 02:18:00;;;;;;;6.13;2.30;;;;;;;;;;5047749;28;20021;-79
2022/08/23 02:20:26;;;;;;;7.22;2.78;;;19.00;99.90;;;;;;5057833;28;20037;-83
2022/08/23 02:22:51;;;;;;;7.30;2.83;;;18.90;99.90;;;;;;5065844;28;20025;-82
2022/08/23 02:25:17;;;;;;;6.90;2.70;;;18.90;99.90;;;;;;5059535;28;20032;-83
2022/08/23 02:27:43;;;;;;;5.10;2.88;;;;;;;;;;5045412;28;20033;-82
2022/08/23 02:30:09;;;;;;;6.18;2.50;;;18.70;99.90;;;;;;5058971;28;20052;-83
2022/08/23 02:32:35;;;;;;;7.32;2.80;;;;;;;;;;5057765;28;20074;-80
2022/08/23 02:35:01;;;;;;;6.28;2.70;;;18.60;99.90;;;;;;5067382;28;20529;-83
2022/08/23 02:37:26;;;;;;;6.30;2.85;;;18.70;99.90;;;;;;5066683;28;20098;-82
2022/08/23 02:39:52;;;;;;;6.18;2.47;;;;;;;;;;5060442;28;20021;-81
2022/08/23 02:42:18;;;;;;;4.75;2.30;;;18.60;99.90;;;;;;5064858;28;20024;-82
2022/08/23 02:44:43;;;;;;;6.95;2.53;;;19.70;99.90;;;;;;5063705;28;20029;-84
2022/08/23 02:47:10;;;;;;;7.00;2.72;;;20.00;99.90;;;;;;5058891;28;20056;-83
2022/08/23 02:49:36;;;;;;;4.80;2.45;;;;;;;;;;5060939;28;20047;-85
2022/08/23 02:52:05;;;;;;;5.03;2.60;;;18.50;99.90;;;;;;5063891;28;20016;-82
2022/08/23 02:54:31;;;;;;;8.77;2.97;;;;;;;;;;5059199;28;20028;-80
2022/08/23 02:56:57;;;;;;;7.55;3.00;;;18.50;99.90;;;;;;5066299;28;20094;-82
2022/08/23 02:59:22;;;;;;;7.18;2.60;;;18.50;99.90;;;;;;5074688;28;20487;-81
2022/08/23 03:01:48;;;;;;;5.22;2.60;;;;;;;;;;5056639;28;20029;-82
2022/08/23 03:04:14;;;;;;;7.25;2.70;;;18.40;99.90;;;;;;5075521;28;20021;-83
2022/08/23 03:06:40;;;;;;;5.75;3.05;;;18.40;99.90;;;;;;5077013;28;20029;-84
2022/08/23 03:09:06;;;;;;;8.45;2.60;;;;;;;;;;5063583;28;20029;-84
2022/08/23 03:11:32;;;;;;;6.35;2.55;;;;;;;;;;5074925;28;20386;-81
2022/08/23 03:14:00;;;;;;;6.28;2.53;;;;;;;;;;5064978;28;20033;-81
2022/08/23 03:16:26;;;;;;;6.70;2.90;;;;;;;;;;5069301;28;20106;-84
2022/08/23 03:18:52;;;;;;;5.43;2.80;;;;;;;;;;5064958;28;20049;-83
2022/08/23 03:21:19;;;;;;;4.95;2.70;;;18.30;99.90;;;;;;5064495;28;20056;-81
2022/08/23 03:23:45;;;;;;;6.63;2.72;;;;;;;;;;5066207;28;20029;-82
2022/08/23 03:26:12;;;;;;;6.40;2.85;;;18.30;99.90;;;;;;5055507;28;20029;-82
2022/08/23 03:28:40;;;;;;;6.57;2.58;;;18.20;99.90;;;;;;5084678;28;20029;-82
2022/08/23 03:31:07;;;;;;;6.75;2.95;;;18.10;99.90;;;;;;5067211;28;20021;-82
2022/08/23 03:33:33;;;;;;;6.40;2.47;;;;;;;;;;5062665;28;20167;-82
2022/08/23 03:36:02;;;;;;;6.57;3.17;;;18.00;99.90;;;;;;5063148;28;20025;-83
2022/08/23 03:38:28;;;;;;;5.93;2.72;;;18.00;99.90;;;;;;5064760;28;20029;-82
2022/08/23 03:40:53;;;;;;;6.80;2.83;;;18.10;99.90;;;;;;5063822;28;20110;-82
2022/08/23 03:43:20;;;;;;;7.18;3.15;;;18.00;99.90;;;;;;5064938;28;20021;-81
2022/08/23 03:45:46;;;;;;;4.50;2.30;;;;;;;;;;5059965;28;20048;-83
2022/08/23 03:48:12;;;;;;;5.57;2.65;;;18.00;99.90;;;;;;5063756;28;20028;-82
2022/08/23 03:50:37;;;;;;;4.75;2.50;;;17.90;99.90;;;;;;5062872;28;20029;-81
2022/08/23 03:53:03;;;;;;;5.65;2.97;;;17.90;99.90;;;;;;5060714;28;20032;-82
2022/08/23 03:55:31;;;;;;;6.72;3.00;;;;;;;;;;5061453;28;20057;-82
2022/08/23 03:57:56;;;;;;;6.38;2.63;;;17.80;99.90;;;;;;5048832;28;20021;-84
2022/08/23 04:00:22;;;;;;;6.88;2.90;;;17.80;99.90;;;;;;5064317;28;20017;-84
2022/08/23 04:02:48;;;;;;;6.78;2.88;;;;;;;;;;5050163;28;20030;-81
2022/08/23 04:05:14;;;;;;;9.70;2.92;;;;;;;;;;5058703;28;20072;-82
2022/08/23 04:07:40;;;;;;;5.47;2.40;;;;;;;;;;5060255;28;20151;-84
2022/08/23 04:10:08;;;;;;;9.32;2.78;;;17.60;99.90;;;;;;5058639;28;20041;-81
2022/08/23 04:12:34;;;;;;;7.40;2.75;;;17.60;99.90;;;;;;5059825;28;20105;-82
2022/08/23 04:15:00;;;;;;;6.57;2.67;;;17.60;99.90;;;;;;5055317;28;20041;-82
2022/08/23 04:17:27;;;;;;;9.38;3.40;;;17.50;99.90;;;;;;5062165;28;20017;-82
2022/08/23 04:19:53;;;;;;;5.65;2.85;;;;;;;;;;5061519;28;20025;-80
2022/08/23 04:22:19;;;;;;;7.72;2.75;;;17.60;99.90;;;;;;5074039;28;20020;-83
2022/08/23 04:24:46;;;;;;;6.32;2.83;;;18.00;99.90;;;;;;5061836;28;20028;-83
2022/08/23 04:27:13;;;;;;;6.22;2.90;;;17.60;99.90;;;;;;5060482;28;20025;-83
2022/08/23 04:29:39;;;;;;;6.53;2.88;;;17.60;99.90;;;;;;5059470;28;20120;-85
2022/08/23 04:32:07;;;;;;;6.15;2.63;;;17.50;99.90;;;;;;5062640;28;20026;-83
2022/08/23 04:34:34;;;;;;;6.57;3.45;;;17.60;99.90;;;;;;5064614;28;20081;-81
2022/08/23 04:37:00;;;;;;;11.73;3.22;;;;;;;;;;5076056;28;20032;-82
2022/08/23 04:39:26;;;;;;;7.35;3.47;;;17.60;99.90;;;;;;5064302;28;20090;-83
2022/08/23 04:44:36;;;;;;;8.73;3.13;;;17.60;99.90;;;;;;5070937;28;20052;-82
2022/08/23 04:47:03;;;;;;;5.50;2.65;;;17.50;99.90;;;;;;5064296;28;20029;-82
2022/08/23 04:49:28;;;;;;;6.53;2.90;;;17.50;99.90;;;;;;5060805;28;20032;-82
2022/08/23 04:51:54;;;;;;;10.13;4.00;;;;;;;;;;5078672;28;20068;-85
2022/08/23 04:54:21;;;;;;;10.82;3.08;;;17.50;99.90;;;;;;5088240;28;20052;-83
2022/08/23 04:56:47;;;;;;;7.32;3.10;;;17.50;99.90;;;;;;5077405;28;20041;-83
2022/08/23 04:59:13;;;;;;;7.43;2.92;;;17.60;99.90;;;;;;5080941;28;20010;-84
2022/08/23 05:01:41;;;;;;;9.00;3.25;;;;;;;;;;5051945;28;20030;-83
2022/08/23 05:04:07;;;;;;;7.45;2.80;;;;;;;;;;5048486;28;20021;-81
2022/08/23 05:06:33;;;;;;;9.95;2.88;;;;;;;;;;5057362;28;20033;-80
2022/08/23 05:09:00;;;;;;;7.72;2.90;;;;;;;;;;5073407;28;20028;-80
2022/08/23 05:11:28;;;;;;;4.97;2.90;;;17.40;99.90;;;;;;5072059;28;20024;-82
2022/08/23 05:13:55;;;;;;;7.28;3.00;;;;;;;;;;5049182;28;20060;-82
2022/08/23 05:16:21;;;;;;;7.13;2.83;;;;;;;;;;5062611;28;20028;-84
2022/08/23 05:18:46;;;;;;;9.25;3.10;;;17.20;99.90;;;;;;5058857;28;20033;-81
2022/08/23 05:21:17;;;;;;;10.90;3.67;;;17.10;99.90;;;;;;5059856;28;20029;-82
2022/08/23 05:23:43;;;;;;;5.80;2.85;;;;;;;;;;5062268;28;20021;-83
2022/08/23 05:26:10;;;;;;;7.18;3.25;;;;;;;;;;5064188;28;20036;-84
2022/08/23 05:28:42;;;;;;;9.20;3.20;;;17.10;99.90;;;;;;5069624;28;20048;-81
2022/08/23 05:31:17;;;;;;;7.13;3.03;;;17.20;99.90;;;;;;5054926;28;20032;-85
2022/08/23 05:33:43;;;;;;;6.35;3.08;;;17.20;99.90;;;;;;5058083;28;20048;-85
2022/08/23 05:36:11;;;;;;;7.93;3.15;;;17.30;99.90;;;;;;5059095;28;20025;-84
2022/08/23 05:38:38;;;;;;;8.82;3.10;;;17.40;99.90;;;;;;5061104;28;20025;-85
2022/08/23 05:41:04;;;;;;;8.60;3.58;;;17.40;99.90;;;;;;5073183;28;20025;-85
2022/08/23 05:43:30;;;;;;;9.68;3.47;;;17.50;99.90;;;;;;5066289;28;20017;-83
2022/08/23 05:46:15;;;;;;;8.40;2.90;;;17.50;99.90;;;;;;5067851;28;20033;-81
2022/08/23 05:48:47;;;;;;;8.73;3.53;;;17.60;99.90;;;;;;5065920;28;20088;-81
2022/08/23 05:51:25;;;;;;;7.38;2.80;;;17.60;99.90;;;;;;5062751;28;20046;-84
2022/08/23 05:53:52;;;;;;;12.10;3.35;;;17.70;99.90;;;;;;5059388;28;20068;-83
2022/08/23 05:56:23;;;;;;;8.32;3.22;;;17.70;99.90;;;;;;5064660;28;20036;-84
2022/08/23 05:58:51;;;;;;;7.43;2.92;;;17.80;99.90;;;;;;5065817;28;20059;-83
2022/08/23 06:01:18;;;;;;;8.38;3.28;;;17.90;99.90;;;;;;5063371;28;20112;-83
2022/08/23 06:03:44;;;;;;;9.73;3.50;;;18.00;99.90;;;;;;5081778;28;20048;-83
2022/08/23 06:06:13;;;;;;;7.32;3.10;;;18.10;99.90;;;;;;5065280;28;20028;-83
2022/08/23 06:08:40;;;;;;;8.63;3.22;;;18.20;99.90;;;;;;5069331;28;20393;-82
2022/08/23 06:11:10;;;;;;;7.55;3.20;;;18.20;99.90;;;;;;5071234;28;20025;-84
2022/08/23 06:13:45;;;;;;;13.35;4.05;;;18.40;99.90;;;;;;5065799;28;20025;-84
2022/08/23 06:16:13;;;;;;;7.28;3.25;;;18.40;99.90;;;;;;5066885;28;20361;-82
2022/08/23 06:18:39;;;;;;;7.30;3.00;;;;;;;;;;5068115;28;20461;-84
2022/08/23 06:21:08;;;;;;;9.43;3.67;;;18.40;99.90;;;;;;5065843;28;20049;-87
2022/08/23 06:23:34;;;;;;;10.10;3.33;;;;;;;;;;5058526;28;20025;-84
2022/08/23 06:26:00;;;;;;;6.38;3.45;;;;;;;;;;5065005;28;20041;-85
2022/08/23 06:28:29;;;;;;;9.10;3.40;;;18.50;99.90;;;;;;5067932;28;20359;-82
2022/08/23 06:30:56;;;;;;;26.88;4.50;;;18.50;99.90;;;;;;5065103;28;20043;-83
2022/08/23 06:33:22;;;;;;;13.43;3.35;;;;;;;;;;5066736;28;20029;-84
2022/08/23 06:35:49;;;;;;;10.35;3.22;;;18.70;99.90;;;;;;5074430;28;20040;-84
2022/08/23 06:38:16;;;;;;;14.50;5.50;;;18.80;99.90;;;;;;5067564;28;20028;-85
2022/08/23 06:40:42;;;;;;;9.82;3.70;;;;;;;;;;5056571;28;20101;-85
2022/08/23 06:43:08;;;;;;;7.25;3.47;;;;;;;;;;5088885;28;20088;-84
2022/08/23 06:45:34;;;;;;;10.27;3.40;;;;;;;;;;5065855;28;20031;-83
2022/08/23 06:48:01;;;;;;;7.80;3.38;;;;;;;;;;5066701;28;20075;-84
2022/08/23 06:50:26;;;;;;;11.38;3.70;;;;;;;;;;5065635;28;20036;-84
2022/08/23 06:52:52;;;;;;;10.27;3.83;;;19.40;99.90;;;;;;5065009;28;20066;-85
2022/08/23 06:55:18;;;;;;;7.18;3.10;;;19.50;99.90;;;;;;5071846;28;20060;-83
2022/08/23 06:57:44;;;;;;;8.82;3.33;;;19.60;99.90;;;;;;5077363;28;20036;-83
2022/08/23 07:00:10;;;;;;;9.00;3.35;;;19.70;99.90;;;;;;5078048;28;20025;-83
2022/08/23 07:02:36;;;;;;;10.68;3.58;;;19.70;99.90;;;;;;5064558;28;20051;-82
2022/08/23 07:05:03;;;;;;;8.88;3.38;;;19.80;99.90;;;;;;5053601;28;20025;-86
2022/08/23 07:07:29;;;;;;;8.10;3.00;;;20.00;99.90;;;;;;5067296;28;20025;-83
2022/08/23 07:09:55;;;;;;;9.50;3.05;;;20.00;99.90;;;;;;5065635;28;20494;-84
2022/08/23 07:12:21;;;;;;;10.05;3.47;;;20.30;99.90;;;;;;5066086;28;20021;-84
2022/08/23 07:14:48;;;;;;;12.55;3.50;;;;;;;;;;5065198;28;20021;-84
2022/08/23 07:17:14;;;;;;;7.68;3.15;;;;;;;;;;5071753;28;20116;-83
2022/08/23 07:19:42;;;;;;;9.93;3.22;;;20.70;99.90;;;;;;5058817;28;20033;-83
2022/08/23 07:22:10;;;;;;;8.85;3.45;;;;;;;;;;5049142;28;20029;-83
2022/08/23 07:24:38;;;;;;;8.70;3.30;;;20.90;99.90;;;;;;5066498;28;20029;-83
2022/08/23 07:27:07;;;;;;;11.70;3.35;;;22.30;99.90;;;;;;5057839;28;20028;-85
2022/08/23 07:29:35;;;;;;;7.95;3.25;;;21.00;99.90;;;;;;5063264;28;20029;-83
2022/08/23 07:32:02;;;;;;;13.60;3.30;;;21.00;99.90;;;;;;5072176;28;20031;-83
2022/08/23 07:34:28;;;;;;;11.10;3.40;;;;;;;;;;5066632;28;20033;-85
2022/08/23 07:36:54;;;;;;;9.80;3.42;;;;;;;;;;5059095;28;20017;-83
2022/08/23 07:39:22;;;;;;;10.57;2.95;;;21.60;99.90;;;;;;5066809;28;20112;-84
2022/08/23 07:41:48;;;;;;;17.13;3.47;;;21.90;99.90;;;;;;5067324;28;20024;-85
2022/08/23 07:44:14;;;;;;;13.45;3.28;;;;;;;;;;5063816;28;20040;-85
2022/08/23 07:46:43;;;;;;;8.20;2.80;;;22.20;99.10;;;;;;5081432;28;20028;-85
2022/08/23 07:49:10;;;;;;;9.40;3.20;;;22.40;98.70;;;;;;5069128;28;20029;-82
2022/08/23 07:51:36;;;;;;;13.25;3.50;;;;;;;;;;5071839;28;20036;-85
2022/08/23 07:54:04;;;;;;;12.00;3.85;;;22.40;98.30;;;;;;5054352;28;20399;-86
2022/08/23 07:56:30;;;;;;;8.75;3.38;;;;;;;;;;5065936;28;20021;-82
2022/08/23 07:58:56;;;;;;;8.95;2.83;;;;;;;;;;5065354;28;20029;-84
2022/08/23 08:01:28;;;;;;;8.73;3.10;;;22.70;97.70;;;;;;5076584;28;20047;-84
2022/08/23 08:03:57;;;;;;;10.15;3.60;;;22.80;97.30;;;;;;5065537;28;20025;-82
2022/08/23 08:06:29;;;;;;;7.28;3.38;;;22.80;97.50;;;;;;5078027;28;20100;-84
2022/08/23 08:08:56;;;;;;;9.55;3.65;;;23.00;97.00;;;;;;5055905;28;20029;-83
2022/08/23 08:11:25;;;;;;;10.82;3.08;;;23.30;96.50;;;;;;5067185;28;20085;-84
2022/08/23 08:13:51;;;;;;;10.48;3.35;;;23.20;96.70;;;;;;5072775;28;20025;-84
2022/08/23 08:16:27;;;;;;;9.70;3.70;;;23.40;96.10;;;;;;5065624;28;20036;-83
2022/08/23 08:18:55;;;;;;;8.10;3.05;;;23.70;95.80;;;;;;5063158;28;20017;-85
2022/08/23 08:21:22;;;;;;;11.15;3.40;;;;;;;;;;5067639;28;20029;-84
2022/08/23 08:23:48;;;;;;;10.20;3.33;;;23.80;95.40;;;;;;5065520;28;20025;-85
2022/08/23 08:26:14;;;;;;;7.65;3.35;;;24.10;95.20;;;;;;5069422;28;20055;-83
2022/08/23 08:28:40;;;;;;;11.32;3.67;;;24.20;94.80;;;;;;5077035;28;20101;-83
2022/08/23 08:31:06;;;;;;;11.98;3.05;;;;;;;;;;5058768;28;20025;-82
2022/08/23 08:33:32;;;;;;;9.25;3.53;;;24.60;94.00;;;;;;5064241;28;20041;-82
2022/08/23 08:35:58;;;;;;;9.18;3.13;;;24.80;94.10;;;;;;5075259;28;20029;-82
2022/08/23 08:38:24;;;;;;;7.88;3.00;;;24.80;93.30;;;;;;5081446;28;20397;-83
2022/08/23 08:41:02;;;;;;;5.80;2.72;;;24.90;92.70;;;;;;5072063;28;20562;-83
2022/08/23 08:43:53;;;;;;;7.70;2.53;;;25.00;93.00;;;;;;5085432;28;20416;-82
2022/08/23 08:46:37;;;;;;;7.85;2.80;;;25.20;92.50;;;;;;5061869;28;20490;-83
2022/08/23 08:49:06;;;;;;;9.18;2.67;;;25.30;91.60;;;;;;5063506;28;20120;-83
2022/08/23 08:51:57;;;;;;;9.15;2.83;;;25.40;91.50;;;;;;5065225;28;20033;-82
2022/08/23 08:54:26;;;;;;;7.78;2.72;;;25.40;91.40;;;;;;5057369;28;20021;-81
2022/08/23 08:56:57;;;;;;;8.27;2.58;;;25.40;91.60;;;;;;5060470;28;20029;-81
2022/08/23 08:59:44;;;;;;;6.30;2.78;;;25.80;91.00;;;;;;5069776;28;20117;-83
2022/08/23 09:02:16;;;;;;;8.75;2.85;;;26.00;90.70;;;;;;5057101;28;20029;-84
2022/08/23 09:04:42;;;;;;;8.85;3.10;;;26.00;90.80;;;;;;5057564;28;20035;-80
2022/08/23 09:07:35;;;;;;;7.18;2.88;;;26.10;91.10;;;;;;5061650;28;20127;-82
2022/08/23 09:10:01;;;;;;;11.05;2.90;;;;;;;;;;5046503;28;20039;-81
2022/08/23 09:12:36;;;;;;;12.40;3.10;;;26.10;90.80;;;;;;5062088;28;20021;-82
2022/08/23 09:15:24;;;;;;;12.45;3.25;;;26.50;92.00;;;;;;5073791;28;20543;-81
2022/08/23 09:17:53;;;;;;;12.13;3.60;;;26.50;90.60;;;;;;5072729;28;20031;-80
2022/08/23 09:20:21;;;;;;;;;;;26.70;91.70;;;;;;5066145;28;20042;-82
2022/08/23 09:22:56;;;;;;;5.90;2.80;;;26.70;91.30;;;;;;5070300;28;19913;-81
2022/08/23 09:25:23;;;;;;;7.63;2.90;;;;;;;;;;5079098;28;20029;-82
2022/08/23 09:27:49;;;;;;;6.07;2.42;;;;;;;;;;5067579;28;20049;-82
2022/08/23 09:30:18;;;;;;;9.65;2.55;;;27.20;87.50;;;;;;5065230;28;20029;-81
2022/08/23 09:32:48;;;;;;;11.50;2.53;;;27.20;86.60;;;;;;5090175;28;20043;-83
2022/08/23 09:35:23;;;;;;;6.85;2.20;;;27.20;86.60;;;;;;5082884;28;20027;-83
2022/08/23 09:38:14;;;;;;;8.25;2.38;;;27.20;84.40;;;;;;5082817;28;20025;-80
2022/08/23 09:40:49;;;;;;;6.97;2.58;;;27.20;85.30;;;;;;5068485;28;20025;-82
2022/08/23 09:43:25;;;;;;;10.80;2.30;;;27.30;86.10;;;;;;5078844;28;20048;-81
2022/08/23 09:45:51;;;;;;;6.72;2.20;;;;;;;;;;5066371;28;20040;-81
2022/08/23 09:48:38;;;;;;;14.10;5.53;;;27.60;82.90;;;;;;5091816;28;20127;-81
2022/08/23 09:51:22;;;;;;;7.60;3.17;;;27.80;82.40;;;;;;5096634;28;20024;-81
2022/08/23 09:54:11;;;;;;;5.32;2.47;;;27.80;81.70;;;;;;5068043;28;20124;-81
2022/08/23 09:56:39;;;;;;;7.82;2.20;;;28.10;80.70;;;;;;5068397;28;20028;-81
2022/08/23 09:59:26;;;;;;;6.82;2.40;;;28.10;79.40;;;;;;5066414;28;20036;-81
2022/08/23 10:01:55;;;;;;;5.68;2.30;;;28.30;79.40;;;;;;5064060;28;20122;-80
2022/08/23 10:04:28;;;;;;;5.18;1.95;;;28.20;78.00;;;;;;5063377;28;20017;-81
2022/08/23 10:06:54;;;;;;;6.10;2.40;;;;;;;;;;5081358;28;20028;-81
2022/08/23 10:09:27;;;;;;;7.25;2.53;;;28.30;78.00;;;;;;5077210;28;20083;-82
2022/08/23 10:11:53;;;;;;;8.25;2.65;;;28.30;78.40;;;;;;5079833;28;20032;-81
2022/08/23 10:14:20;;;;;;;11.07;5.30;;;28.60;77.90;;;;;;5072041;28;20052;-83
2022/08/23 10:16:59;;;;;;;7.63;2.60;;;28.60;78.30;;;;;;5053685;28;20048;-81
2022/08/23 10:19:47;;;;;;;9.07;2.63;;;28.40;76.60;;;;;;5058058;28;20037;-81
2022/08/23 10:22:25;;;;;;;9.25;2.63;;;28.50;77.00;;;;;;5077711;28;20029;-81
2022/08/23 10:25:13;;;;;;;7.40;2.58;;;28.50;77.10;;;;;;5072071;28;20013;-82
2022/08/23 10:31:09;;;;;;;8.43;3.33;;;28.90;77.70;;;;;;5078043;28;20027;-80
2022/08/23 10:34:02;;;;;;;9.57;2.83;;;28.80;76.40;;;;;;5075108;28;20029;-81
2022/08/23 10:36:37;;;;;;;13.43;3.45;;;28.70;75.80;;;;;;5085032;28;20060;-82
2022/08/23 10:39:14;;;;;;;11.50;3.65;;;29.00;76.60;;;;;;5076114;28;20043;-81
2022/08/23 10:42:20;;;;;;;12.77;3.72;;;29.30;76.00;;;;;;5082952;28;20029;-80
2022/08/23 10:45:16;;;;;;;11.60;3.42;;;29.30;76.00;;;;;;5076982;28;20021;-81
2022/08/23 10:48:10;;;;;;;6.00;2.50;;;29.40;74.70;;;;;;5068276;28;20036;-80
2022/08/23 10:50:43;;;;;;;11.02;3.45;;;29.40;74.70;;;;;;5066678;28;20025;-80
2022/08/23 10:53:16;;;;;;;10.88;3.35;;;29.40;75.20;;;;;;5058082;28;20112;-79
2022/08/23 10:56:01;;;;;;;10.45;3.22;;;29.50;73.30;;;;;;5057954;28;20098;-80
2022/08/23 10:58:35;;;;;;;8.82;2.85;;;29.50;73.30;;;;;;5057534;28;20025;-81
2022/08/23 11:01:02;;;;;;;10.43;3.63;;;29.60;72.20;;;;;;5058488;28;20494;-82
2022/08/23 11:03:32;;;;;;;8.00;3.13;;;29.50;70.90;;;;;;5057485;28;20028;-80
2022/08/23 11:06:24;;;;;;;5.78;2.40;;;29.50;71.40;;;;;;5053750;28;20025;-81
2022/08/23 11:08:58;;;;;;;6.25;2.40;;;29.40;70.00;;;;;;5081831;28;20028;-81
2022/08/23 11:11:46;;;;;;;5.68;2.33;;;29.70;70.10;;;;;;5066848;28;20029;-81
2022/08/23 11:14:26;;;;;;;7.32;2.80;;;29.70;70.40;;;;;;5057021;28;20022;-80
2022/08/23 11:16:58;;;;;;;10.63;3.00;;;30.00;69.20;;;;;;5044397;28;20109;-80
2022/08/23 11:20:06;;;;;;;8.45;2.70;;;30.10;68.80;;;;;;5054890;28;20029;-81
2022/08/23 11:22:55;;;;;;;7.88;2.72;;;30.10;68.80;;;;;;5027409;28;20029;-80
2022/08/23 11:25:21;;;;;;;7.28;2.30;;;30.20;67.80;;;;;;5036248;28;20025;-80
2022/08/23 11:27:47;;;;;;;6.32;2.40;;;30.40;67.60;;;;;;5057143;28;20037;-82
2022/08/23 11:30:31;;;;;;;6.78;2.60;;;30.50;66.70;;;;;;5058500;28;20024;-82
2022/08/23 11:33:05;;;;;;;5.20;2.47;;;30.60;67.10;;;;;;5070106;28;20121;-80
2022/08/23 11:35:48;;;;;;;5.13;2.53;;;30.60;67.00;;;;;;5056118;28;20025;-81
2022/08/23 11:38:16;;;;;;;6.18;2.50;;;30.50;65.80;;;;;;5068291;28;20089;-80
2022/08/23 11:40:56;;;;;;;4.13;1.83;;;30.00;66.40;;;;;;5054861;28;20021;-81
2022/08/23 11:43:38;;;;;;;4.88;2.17;;;30.10;66.90;;;;;;5055691;28;20231;-81
2022/08/23 11:46:29;;;;;;;7.65;2.30;;;30.00;67.00;;;;;;5062588;28;20097;-81
2022/08/23 11:49:09;;;;;;;5.55;1.83;;;30.30;65.40;;;;;;5056983;28;20112;-81
2022/08/23 11:51:43;;;;;;;6.10;2.30;;;32.70;66.50;;;;;;5057760;28;20029;-81
2022/08/23 11:54:49;;;;;;;5.35;2.13;;;30.40;65.50;;;;;;5058995;28;20406;-80
2022/08/23 11:57:36;;;;;;;6.97;2.53;;;30.50;64.20;;;;;;5054679;28;20044;-80
2022/08/23 12:00:13;;;;;;;6.53;2.45;;;30.70;64.40;;;;;;5057794;28;20017;-81
2022/08/23 12:02:46;;;;;;;7.07;2.17;;;30.80;64.10;;;;;;5059176;28;20507;-80
2022/08/23 12:05:19;;;;;;;4.20;2.30;;;30.70;64.10;;;;;;5057403;28;20043;-81
2022/08/23 12:07:52;;;;;;;9.43;2.70;;;30.80;63.80;;;;;;5058472;28;20414;-80
2022/08/23 12:10:44;;;;;;;4.25;2.20;;;30.80;63.70;;;;;;5057280;28;20025;-81
2022/08/23 12:13:19;;;;;;;8.02;2.58;;;30.90;63.50;;;;;;5072194;28;20022;-81
2022/08/23 12:16:13;;;;;;;5.95;1.98;;;31.10;62.70;;;;;;5059232;28;20021;-80
2022/08/23 12:18:50;;;;;;;4.75;1.80;;;31.10;63.10;;;;;;5057779;28;20028;-82
2022/08/23 12:21:22;;;;;;;6.75;1.98;;;31.30;61.80;;;;;;5061151;28;20020;-81
2022/08/23 12:23:56;;;;;;;5.97;2.30;;;31.40;61.50;;;;;;5055923;28;20132;-81
2022/08/23 12:26:22;;;;;;;4.55;1.80;;;;;;;;;;5073345;28;20029;-82
2022/08/23 12:28:56;;;;;;;8.55;2.10;;;31.20;61.50;;;;;;5056202;28;20025;-81
2022/08/23 12:31:25;;;;;;;3.72;1.80;;;;;;;;;;5071662;28;20156;-83
2022/08/23 12:33:59;;;;;;;4.28;1.85;;;31.40;61.80;;;;;;5065706;28;20109;-81
2022/08/23 12:36:44;;;;;;;5.60;1.95;;;31.30;60.90;;;;;;5061109;28;20495;-81
2022/08/23 12:39:30;;;;;;;6.70;2.35;;;31.30;60.30;;;;;;5059449;28;20112;-80
2022/08/23 12:42:05;;;;;;;4.63;1.90;;;31.40;60.70;;;;;;5068520;28;20078;-81
2022/08/23 12:44:33;;;;;;;6.45;1.67;;;31.60;60.00;;;;;;5070363;28;20025;-82
2022/08/23 12:47:11;;;;;;;4.47;1.83;;;31.50;60.20;;;;;;5067096;28;20101;-80
2022/08/23 12:49:37;;;;;;;4.88;1.90;;;;;;;;;;5073248;28;20029;-80
2022/08/23 12:52:09;;;;;;;4.10;2.10;;;31.40;59.50;;;;;;5061620;28;20029;-82
2022/08/23 12:54:45;;;;;;;4.97;1.98;;;31.30;60.00;;;;;;5058811;28;20032;-82
2022/08/23 12:57:18;;;;;;;4.65;1.90;;;31.50;59.30;;;;;;5056294;28;20030;-81
2022/08/23 13:00:02;;;;;;;5.35;2.05;;;31.60;59.50;;;;;;5057053;28;20029;-83
2022/08/23 13:02:32;;;;;;;4.32;2.10;;;31.80;59.00;;;;;;5059779;28;20028;-81
2022/08/23 13:05:05;;;;;;;5.18;1.90;;;31.70;58.30;;;;;;5062798;28;20029;-82
2022/08/23 13:07:32;;;;;;;4.38;1.90;;;31.70;58.30;;;;;;5067143;28;20029;-81
2022/08/23 13:09:58;;;;;;;3.80;1.85;;;;;;;;;;5055537;28;20033;-84
2022/08/23 13:12:25;;;;;;;5.45;2.00;;;30.90;58.00;;;;;;5050061;28;20051;-81
2022/08/23 13:14:53;;;;;;;5.15;2.35;;;30.80;58.60;;;;;;5057751;28;20025;-83
2022/08/23 13:17:25;;;;;;;4.22;2.00;;;30.70;59.00;;;;;;5052137;28;20032;-84
2022/08/23 13:20:00;;;;;;;4.65;1.95;;;31.10;58.20;;;;;;5058060;28;20024;-81
2022/08/23 13:22:28;;;;;;;5.18;1.65;;;31.50;57.90;;;;;;5069078;28;20056;-83
2022/08/23 13:25:05;;;;;;;5.68;2.13;;;31.70;58.00;;;;;;5062922;28;20467;-82
2022/08/23 13:27:35;;;;;;;3.95;1.92;;;31.80;57.00;;;;;;5056445;28;20124;-81
2022/08/23 13:30:10;;;;;;;4.22;1.83;;;31.90;56.90;;;;;;5057332;28;20032;-83
2022/08/23 13:32:43;;;;;;;4.53;1.85;;;31.90;57.50;;;;;;5064523;28;20428;-81
2022/08/23 13:35:31;;;;;;;6.35;1.70;;;32.20;57.20;;;;;;5065906;28;20475;-82
2022/08/23 13:38:20;;;;;;;2.65;1.70;;;32.20;56.30;;;;;;5056855;28;20039;-81